Time;durP1;ratioP1;P1;durP2;ratioP2;P2;SDS_P1;SDS_P2;PMS_P1;PMS_P2;Temp;Humidity;BMP_temperature;BMP_pressure;BME280_temperature;BME280_humidity;BME280_pressure;Samples;Min_cycle;Max_cycle;Signal;HPM_P1;HPM_P2
2021/07/10 00:00:59;;;;;;;2.15;1.88;;;;;;;14.70;88.24;101114.03;4983290;28;20124;-80
2021/07/10 00:03:25;;;;;;;2.10;1.60;;;;;;;14.77;87.97;101116.81;4975256;28;20030;-81
2021/07/10 00:05:50;;;;;;;2.58;1.73;;;;;;;14.70;88.24;101108.63;4984244;28;20029;-80
2021/07/10 00:08:16;;;;;;;2.05;1.48;;;;;;;14.72;88.49;101117.41;4982047;28;20021;-80
2021/07/10 00:10:41;;;;;;;2.30;1.65;;;;;;;14.66;88.32;101112.75;4995688;28;20025;-80
2021/07/10 00:13:06;;;;;;;3.10;1.90;;;;;;;14.64;88.60;101112.13;4996798;28;20026;-80
2021/07/10 00:15:33;;;;;;;2.53;1.85;;;;;;;14.61;88.71;101107.09;4977085;28;20034;-80
2021/07/10 00:17:58;;;;;;;4.15;2.38;;;;;;;14.56;88.90;101107.66;4999755;28;20029;-81
2021/07/10 00:20:24;;;;;;;3.45;2.50;;;;;;;14.53;88.79;101099.94;5008481;28;20037;-80
2021/07/10 00:22:49;;;;;;;3.05;2.40;;;;;;;14.50;88.96;101105.69;5003921;28;20041;-80
2021/07/10 00:25:17;;;;;;;2.85;2.33;;;;;;;14.57;89.03;101111.22;5010092;28;20113;-80
2021/07/10 00:27:44;;;;;;;2.90;2.30;;;;;;;14.51;89.11;101105.50;5009647;28;20029;-81
2021/07/10 00:30:10;;;;;;;4.10;2.47;;;;;;;14.53;89.27;101105.34;4984376;28;20037;-81
2021/07/10 00:32:36;;;;;;;5.05;4.18;;;;;;;14.59;89.32;101111.84;5013350;28;20026;-80
2021/07/10 00:35:03;;;;;;;4.45;3.97;;;;;;;14.62;89.20;101108.75;4996182;28;20033;-80
2021/07/10 00:37:28;;;;;;;4.32;3.20;;;;;;;14.64;89.20;101114.81;4994882;28;20053;-80
2021/07/10 00:39:54;;;;;;;3.45;2.40;;;;;;;14.64;89.15;101112.94;5011367;28;20018;-80
2021/07/10 00:42:21;;;;;;;4.85;2.50;;;;;;;14.68;88.98;101107.97;4984768;28;20041;-81
2021/07/10 00:44:48;;;;;;;4.55;2.38;;;;;;;14.65;89.11;101106.50;4982737;28;20076;-80
2021/07/10 00:47:14;;;;;;;4.75;2.45;;;;;;;14.68;88.89;101111.50;4997098;28;20022;-80
2021/07/10 00:49:40;;;;;;;2.67;2.10;;;;;;;14.67;89.45;101111.72;4991023;28;20026;-80
2021/07/10 00:52:05;;;;;;;3.38;2.20;;;;;;;14.67;89.39;101112.56;4988239;28;20026;-80
2021/07/10 00:54:32;;;;;;;4.00;2.20;;;;;;;14.70;89.17;101111.34;5009129;28;20025;-80
2021/07/10 00:57:01;;;;;;;2.58;2.03;;;;;;;14.67;89.16;101100.91;5006041;28;20479;-81
2021/07/10 00:59:27;;;;;;;2.97;2.15;;;;;;;14.70;89.08;101108.63;4990276;28;20022;-81
2021/07/10 01:01:53;;;;;;;2.92;2.63;;;;;;;14.66;89.31;101104.63;4992563;28;20644;-80
2021/07/10 01:04:19;;;;;;;3.65;2.25;;;;;;;14.70;89.46;101097.81;4984404;28;20090;-80
2021/07/10 01:06:44;;;;;;;2.50;2.20;;;;;;;14.70;89.38;101097.81;4994472;28;20025;-81
2021/07/10 01:09:10;;;;;;;3.33;2.40;;;;;;;14.66;89.16;101091.09;4991887;28;20022;-81
2021/07/10 01:11:37;;;;;;;3.03;1.88;;;;;;;14.65;89.53;101086.72;4994041;28;20050;-80
2021/07/10 01:14:02;;;;;;;3.78;1.92;;;;;;;14.67;89.44;101087.38;4984550;28;20064;-80
2021/07/10 01:16:28;;;;;;;2.97;1.90;;;;;;;14.68;89.53;101086.31;4991529;28;20077;-80
2021/07/10 01:18:53;;;;;;;3.55;2.97;;;;;;;14.65;89.49;101075.91;4992673;28;20062;-80
2021/07/10 01:21:19;;;;;;;2.50;1.88;;;;;;;14.64;89.44;101074.22;4992501;28;20033;-80
2021/07/10 01:23:44;;;;;;;2.47;1.95;;;;;;;14.60;89.60;101067.53;4973157;28;20030;-81
2021/07/10 01:26:10;;;;;;;2.10;1.70;;;;;;;14.65;89.68;101068.59;4978345;28;20064;-80
2021/07/10 01:28:35;;;;;;;3.67;1.90;;;;;;;14.73;89.38;101076.59;4979173;28;20125;-80
2021/07/10 01:31:01;;;;;;;2.83;1.80;;;;;;;14.70;89.23;101073.44;4974705;28;20450;-80
2021/07/10 01:33:26;;;;;;;3.22;1.70;;;;;;;14.73;89.23;101070.34;5003982;28;20413;-80
2021/07/10 01:35:52;;;;;;;2.40;1.85;;;;;;;14.76;89.04;101071.81;4986823;28;20033;-80
2021/07/10 01:38:17;;;;;;;2.55;1.73;;;;;;;14.73;89.30;101070.34;4988791;28;20045;-80
2021/07/10 01:40:43;;;;;;;3.33;1.85;;;;;;;14.70;89.40;101062.63;4991809;28;20018;-80
2021/07/10 01:43:09;;;;;;;2.35;1.48;;;;;;;14.68;89.68;101060.09;4976790;28;20032;-81
2021/07/10 01:45:36;;;;;;;3.35;1.67;;;;;;;14.66;89.75;101047.78;4988895;28;20450;-80
2021/07/10 01:48:02;;;;;;;2.90;1.50;;;;;;;14.62;89.77;101051.94;5003791;28;20022;-80
2021/07/10 01:50:28;;;;;;;2.15;1.67;;;;;;;14.59;89.91;101044.22;4989107;28;20502;-80
2021/07/10 01:52:54;;;;;;;4.63;2.05;;;;;;;14.60;nan;101049.41;4974556;28;20033;-80
2021/07/10 01:55:20;;;;;;;2.33;1.90;;;;;;;14.60;90.13;101049.41;4989565;28;20022;-80
2021/07/10 01:57:48;;;;;;;2.30;1.70;;;;;;;14.58;90.16;101043.38;4992630;28;20524;-80
2021/07/10 02:00:16;;;;;;;3.22;1.80;;;;;;;14.63;nan;101046.34;4977385;28;20497;-80
2021/07/10 02:02:42;;;;;;;2.65;2.00;;;;;;;14.67;90.09;101050.31;4979704;28;20034;-80
2021/07/10 02:05:09;;;;;;;2.30;1.80;;;;;;;14.64;89.78;101039.88;4990674;28;20065;-80
2021/07/10 02:07:35;;;;;;;2.78;2.00;;;;;;;14.65;90.08;101041.53;4989388;28;20032;-80
2021/07/10 02:10:00;;;;;;;2.88;2.00;;;;;;;14.63;90.19;101029.22;4973221;28;20015;-80
2021/07/10 02:12:26;;;;;;;3.17;2.20;;;;;;;14.59;90.03;101019.84;4986307;28;20028;-80
2021/07/10 02:14:51;;;;;;;3.08;2.15;;;;;;;14.64;90.22;101028.22;5007599;28;20427;-81
2021/07/10 02:17:17;;;;;;;2.85;2.20;;;;;;;14.67;89.97;101039.47;4990705;28;20037;-80
2021/07/10 02:19:42;;;;;;;2.70;2.15;;;;;;;14.68;90.25;101032.19;4974274;28;20061;-80
2021/07/10 02:22:08;;;;;;;3.45;2.00;;;;;;;14.71;90.27;101027.25;4984148;28;20087;-79
2021/07/10 02:24:34;;;;;;;2.60;1.92;;;;;;;14.72;89.95;101033.50;4974433;28;20368;-79
2021/07/10 02:27:00;;;;;;;2.70;1.95;;;;;;;14.70;89.96;101036.38;4986626;28;20115;-79
2021/07/10 02:29:26;;;;;;;2.47;1.83;;;;;;;14.71;89.97;101039.91;4991198;28;20505;-78
2021/07/10 02:31:52;;;;;;;3.22;2.00;;;;;;;14.64;90.19;101025.53;5010256;28;20490;-81
2021/07/10 02:34:17;;;;;;;2.92;1.60;;;;;;;14.61;90.13;101029.44;4993502;28;20033;-80
2021/07/10 02:36:43;;;;;;;2.30;1.80;;;;;;;14.64;90.46;101037.16;4975894;28;20037;-80
2021/07/10 02:39:08;;;;;;;2.20;1.55;;;;;;;14.66;90.30;101036.97;4989237;28;20089;-81
2021/07/10 02:41:34;;;;;;;3.90;2.58;;;;;;;14.65;90.32;101028.00;4984400;28;20026;-80
2021/07/10 02:43:59;;;;;;;2.70;1.83;;;;;;;14.65;90.16;101021.75;5002233;28;20117;-80
2021/07/10 02:46:25;;;;;;;2.40;1.70;;;;;;;14.70;90.08;101027.44;4993594;28;20503;-80
2021/07/10 02:48:50;;;;;;;3.88;1.88;;;;;;;14.67;90.26;101025.94;4998569;28;20063;-80
2021/07/10 02:51:16;;;;;;;5.05;2.03;;;;;;;14.70;90.25;101013.91;4997295;28;20057;-80
2021/07/10 02:53:42;;;;;;;2.65;1.88;;;;;;;14.67;90.36;101017.00;4984026;28;20030;-80
2021/07/10 02:56:07;;;;;;;2.85;1.77;;;;;;;14.63;90.36;101011.16;4994004;28;20022;-81
2021/07/10 02:58:33;;;;;;;2.95;2.00;;;;;;;14.61;90.53;101012.38;5010541;28;20048;-81
2021/07/10 03:00:58;;;;;;;2.78;2.03;;;;;;;14.64;90.57;101014.69;4996968;28;20022;-80
2021/07/10 03:03:24;;;;;;;2.97;2.15;;;;;;;14.58;90.67;101002.78;4997750;28;20092;-80
2021/07/10 03:05:49;;;;;;;2.85;2.05;;;;;;;14.61;90.61;101013.22;4981978;28;20030;-80
2021/07/10 03:08:15;;;;;;;2.60;1.60;;;;;;;14.57;90.69;101009.22;4975175;28;20034;-80
2021/07/10 03:10:42;;;;;;;2.40;1.80;;;;;;;14.59;90.76;101014.44;4986248;28;20523;-80
2021/07/10 03:13:08;;;;;;;2.20;1.67;;;;;;;14.59;90.61;101017.97;4983669;28;20478;-80
2021/07/10 03:15:34;;;;;;;3.22;1.90;;;;;;;14.60;90.87;101008.81;4992440;28;20026;-79
2021/07/10 03:17:59;;;;;;;3.17;1.77;;;;;;;14.59;90.98;101007.16;4981851;28;20021;-80
2021/07/10 03:20:25;;;;;;;2.90;1.80;;;;;;;14.66;90.80;101015.31;4995092;28;20083;-80
2021/07/10 03:22:51;;;;;;;2.65;1.90;;;;;;;14.64;90.74;101012.81;4998467;28;20030;-79
2021/07/10 03:25:17;;;;;;;2.63;1.85;;;;;;;14.60;90.78;101007.97;5001595;28;20026;-81
2021/07/10 03:27:44;;;;;;;3.08;1.77;;;;;;;14.59;90.96;101011.72;4992825;28;20030;-81
2021/07/10 03:30:12;;;;;;;3.33;1.73;;;;;;;14.64;90.92;101014.69;4995268;28;20022;-81
2021/07/10 03:32:41;;;;;;;2.22;1.60;;;;;;;14.62;91.08;101008.63;4981140;28;20041;-80
2021/07/10 03:35:08;;;;;;;2.10;1.65;;;;;;;14.64;90.90;101011.97;4988692;28;20022;-80
2021/07/10 03:37:33;;;;;;;3.70;1.77;;;;;;;14.60;91.05;100999.88;5008685;28;20033;-80
2021/07/10 03:39:59;;;;;;;3.50;1.83;;;;;;;14.63;90.98;101003.03;4982743;28;20022;-80
2021/07/10 03:42:25;;;;;;;3.40;1.75;;;;;;;14.64;91.05;101004.69;4987211;28;20025;-80
2021/07/10 03:44:50;;;;;;;2.60;2.03;;;;;;;14.63;91.16;101003.03;4986410;28;20027;-80
2021/07/10 03:47:15;;;;;;;3.05;1.60;;;;;;;14.64;90.98;101002.00;4980378;28;20057;-80
2021/07/10 03:49:41;;;;;;;2.22;1.48;;;;;;;14.59;90.90;100992.78;4985087;28;20045;-80
2021/07/10 03:52:07;;;;;;;2.15;1.60;;;;;;;14.58;91.16;100991.09;4986023;28;20021;-80
2021/07/10 03:54:32;;;;;;;3.83;2.60;;;;;;;14.66;91.05;100996.38;4989295;28;20030;-80
2021/07/10 03:56:58;;;;;;;2.00;1.67;;;;;;;14.63;91.08;100992.22;4984996;28;20040;-80
2021/07/10 03:59:23;;;;;;;3.17;1.83;;;;;;;14.63;91.02;100991.34;4983996;28;20056;-80
2021/07/10 04:01:48;;;;;;;2.00;1.75;;;;;;;14.60;91.22;100989.03;5009971;28;20038;-80
2021/07/10 04:04:14;;;;;;;2.65;2.05;;;;;;;14.63;91.24;100985.94;4989886;28;20030;-80
2021/07/10 04:06:40;;;;;;;1.92;1.70;;;;;;;14.64;91.20;100999.28;4994517;28;20029;-80
2021/07/10 04:09:06;;;;;;;2.55;1.73;;;;;;;14.62;91.14;100989.69;4979222;28;20107;-80
2021/07/10 04:11:31;;;;;;;2.10;1.73;;;;;;;14.57;91.15;100978.63;5004998;28;20037;-80
2021/07/10 04:13:57;;;;;;;2.42;1.80;;;;;;;14.64;91.26;100996.56;5010902;28;20022;-80
2021/07/10 04:16:22;;;;;;;2.20;1.83;;;;;;;14.63;91.31;100994.06;4987605;28;20037;-79
2021/07/10 04:18:48;;;;;;;2.80;2.22;;;;;;;14.60;91.23;100989.03;4998972;28;20033;-80
2021/07/10 04:21:14;;;;;;;2.10;1.73;;;;;;;14.61;91.02;100993.44;4969450;28;20028;-81
2021/07/10 04:23:40;;;;;;;4.10;1.67;;;;;;;14.66;90.89;100999.06;4969535;28;20509;-81
2021/07/10 04:26:05;;;;;;;2.05;1.85;;;;;;;14.68;91.16;101000.53;4964982;28;20034;-80
2021/07/10 04:28:31;;;;;;;2.25;1.63;;;;;;;14.61;91.23;100985.31;4982186;28;20022;-81
2021/07/10 04:30:56;;;;;;;2.13;1.83;;;;;;;14.68;91.04;100999.72;4976361;28;20593;-80
2021/07/10 04:33:22;;;;;;;2.65;1.95;;;;;;;14.64;91.13;100999.28;4983647;28;20030;-80
2021/07/10 04:35:47;;;;;;;3.50;1.80;;;;;;;14.69;91.07;101006.81;5008684;28;20061;-80
2021/07/10 04:38:13;;;;;;;2.92;1.70;;;;;;;14.67;91.14;100992.66;4979802;28;20037;-80
2021/07/10 04:40:38;;;;;;;2.03;1.70;;;;;;;14.73;91.23;101005.38;4984192;28;20121;-80
2021/07/10 04:43:04;;;;;;;1.90;1.70;;;;;;;14.65;91.13;100990.13;4971869;28;20036;-80
2021/07/10 04:45:29;;;;;;;2.15;1.77;;;;;;;14.75;91.15;101006.03;4985877;28;20766;-80
2021/07/10 04:47:55;;;;;;;2.38;1.65;;;;;;;14.74;91.23;101004.38;4997935;28;20028;-80
2021/07/10 04:50:22;;;;;;;3.92;1.88;;;;;;;14.74;91.36;101004.38;4981826;28;20034;-80
2021/07/10 04:52:47;;;;;;;2.42;1.92;;;;;;;14.75;91.22;101006.03;4985174;28;20085;-80
2021/07/10 04:55:16;;;;;;;3.38;1.70;;;;;;;14.78;91.10;101012.91;4981225;28;20504;-80
2021/07/10 04:57:43;;;;;;;2.20;1.77;;;;;;;14.75;91.35;101006.03;4990171;28;20018;-80
2021/07/10 05:00:09;;;;;;;2.60;2.17;;;;;;;14.76;91.30;101012.25;5011391;28;20112;-79
2021/07/10 05:02:34;;;;;;;3.40;1.90;;;;;;;14.78;91.37;101016.44;4987672;28;20041;-80
2021/07/10 05:05:00;;;;;;;3.75;1.90;;;;;;;14.80;91.15;101014.38;4991690;28;20025;-80
2021/07/10 05:07:26;;;;;;;2.88;1.92;;;;;;;14.77;91.11;101013.97;4974800;28;20032;-80
2021/07/10 05:09:51;;;;;;;2.40;1.77;;;;;;;14.81;91.14;101018.75;5013342;28;20474;-80
2021/07/10 05:12:20;;;;;;;3.10;2.00;;;;;;;14.79;91.24;101015.44;4975564;28;20022;-81
2021/07/10 05:14:47;;;;;;;3.88;2.40;;;;;;;14.79;91.23;101010.03;4980898;28;20026;-80
2021/07/10 05:17:12;;;;;;;2.70;1.98;;;;;;;14.77;91.05;101012.09;4984959;28;20048;-80
2021/07/10 05:19:37;;;;;;;2.47;2.10;;;;;;;14.79;91.31;101011.88;4977814;28;20479;-80
2021/07/10 05:22:04;;;;;;;3.40;1.70;;;;;;;14.84;91.24;101014.81;4983740;28;20026;-80
2021/07/10 05:24:29;;;;;;;2.20;1.85;;;;;;;14.77;91.08;101003.97;4976752;28;20566;-81
2021/07/10 05:26:55;;;;;;;5.63;1.92;;;;;;;14.84;91.23;101014.81;4971122;28;20117;-80
2021/07/10 05:29:20;;;;;;;2.97;1.60;;;;;;;14.80;91.03;101008.97;4983026;28;20057;-80
2021/07/10 05:31:46;;;;;;;2.38;1.70;;;;;;;14.84;90.84;101009.41;4985027;28;20058;-80
2021/07/10 05:34:11;;;;;;;2.28;1.75;;;;;;;14.92;90.96;101017.38;4970043;28;20026;-80
2021/07/10 05:36:37;;;;;;;2.50;1.70;;;;;;;14.89;90.91;101013.19;4964563;28;20033;-80
2021/07/10 05:39:03;;;;;;;4.00;2.05;;;;;;;14.91;91.05;101013.00;4967158;28;20061;-80
2021/07/10 05:41:28;;;;;;;2.70;1.70;;;;;;;14.91;91.05;101008.41;4999179;28;20061;-80
2021/07/10 05:43:54;;;;;;;2.47;1.75;;;;;;;14.97;90.80;101024.91;4982767;28;20057;-80
2021/07/10 05:46:19;;;;;;;3.65;1.80;;;;;;;14.92;90.92;101015.53;5000084;28;20203;-81
2021/07/10 05:48:45;;;;;;;2.10;1.83;;;;;;;14.97;91.10;101016.78;4982372;28;20037;-80
2021/07/10 05:51:10;;;;;;;2.67;1.80;;;;;;;14.95;90.81;101017.84;4998678;28;20025;-80
2021/07/10 05:53:36;;;;;;;2.30;1.92;;;;;;;14.99;91.15;101017.44;4984714;28;20084;-80
2021/07/10 05:56:01;;;;;;;2.30;1.98;;;;;;;14.97;90.65;101011.38;4986610;28;20029;-81
2021/07/10 05:58:27;;;;;;;3.15;1.85;;;;;;;15.01;90.67;101007.25;4979132;28;21913;-80
2021/07/10 06:00:52;;;;;;;5.53;2.00;;;;;;;15.00;90.70;101013.69;4975179;28;20034;-80
2021/07/10 06:03:18;;;;;;;2.97;2.20;;;;;;;15.03;90.74;101015.97;4983716;28;20089;-79
2021/07/10 06:05:43;;;;;;;2.38;2.03;;;;;;;15.08;90.98;101029.75;4990243;28;20044;-79
2021/07/10 06:08:09;;;;;;;2.55;1.90;;;;;;;15.07;90.60;101026.22;4976122;28;20045;-80
2021/07/10 06:10:34;;;;;;;3.45;1.90;;;;;;;14.93;90.76;101000.94;4989873;28;20379;-79
2021/07/10 06:13:00;;;;;;;2.33;2.13;;;;;;;15.09;90.41;101021.47;4972210;28;20029;-79
2021/07/10 06:15:25;;;;;;;2.97;1.98;;;;;;;15.12;90.55;101031.06;5001219;28;20490;-81
2021/07/10 06:17:51;;;;;;;4.72;2.30;;;;;;;15.13;90.73;101030.00;4983350;28;20040;-80
2021/07/10 06:20:18;;;;;;;3.30;1.80;;;;;;;15.16;90.55;101030.47;4999752;28;20089;-81
2021/07/10 06:22:46;;;;;;;2.47;1.80;;;;;;;15.12;90.52;101023.75;4999994;28;20033;-80
2021/07/10 06:25:13;;;;;;;4.53;2.20;;;;;;;15.21;90.45;101032.56;4982012;28;20046;-80
2021/07/10 06:27:38;;;;;;;2.20;1.98;;;;;;;15.15;90.36;101023.34;4986128;28;20037;-81
2021/07/10 06:30:06;;;;;;;2.08;1.75;;;;;;;15.22;90.53;101028.00;4981240;28;20026;-80
2021/07/10 06:32:31;;;;;;;4.10;1.92;;;;;;;15.26;90.35;101030.09;4984020;28;20062;-80
2021/07/10 06:34:57;;;;;;;3.30;1.90;;;;;;;15.34;90.14;101029.09;4983380;28;20503;-80
2021/07/10 06:37:23;;;;;;;2.15;1.80;;;;;;;15.36;90.08;101029.72;4998573;28;20033;-80
2021/07/10 06:39:48;;;;;;;2.95;2.20;;;;;;;15.33;90.05;101025.53;4983715;28;20062;-80
2021/07/10 06:42:14;;;;;;;4.05;3.25;;;;;;;15.33;89.89;101025.53;4983970;28;20049;-80
2021/07/10 06:44:39;;;;;;;2.75;1.55;;;;;;;15.34;89.77;101023.66;4970491;28;20026;-80
2021/07/10 06:47:05;;;;;;;3.55;1.90;;;;;;;15.35;89.73;101022.66;4975410;28;20575;-80
2021/07/10 06:49:30;;;;;;;3.97;2.10;;;;;;;15.29;89.66;101020.72;4997653;28;20809;-80
2021/07/10 06:51:55;;;;;;;2.72;1.80;;;;;;;15.31;89.93;101027.63;4972400;28;20030;-80
2021/07/10 06:54:21;;;;;;;4.43;1.88;;;;;;;15.33;89.76;101019.28;4966535;28;20215;-80
2021/07/10 06:56:46;;;;;;;2.80;2.40;;;;;;;15.43;89.60;101024.31;4983998;28;20029;-80
2021/07/10 06:59:12;;;;;;;2.95;2.08;;;;;;;15.44;89.77;101020.59;4982462;28;20018;-80
2021/07/10 07:01:38;;;;;;;3.42;2.05;;;;;;;15.51;90.11;101025.00;4985079;28;20028;-80
2021/07/10 07:04:04;;;;;;;3.10;1.80;;;;;;;15.52;89.71;101023.97;4982777;28;20038;-81
2021/07/10 07:06:29;;;;;;;3.53;2.20;;;;;;;15.54;89.29;101024.59;4981705;28;20399;-79
2021/07/10 07:08:55;;;;;;;2.92;1.90;;;;;;;15.52;89.22;101021.25;4991011;28;20037;-79
2021/07/10 07:11:20;;;;;;;3.85;2.00;;;;;;;15.56;89.02;101019.00;4974880;28;20057;-79
2021/07/10 07:13:45;;;;;;;2.80;1.88;;;;;;;15.55;89.00;101018.13;4978097;28;20057;-80
2021/07/10 07:16:11;;;;;;;4.55;1.90;;;;;;;15.57;88.94;101023.38;4988023;28;20379;-81
2021/07/10 07:18:36;;;;;;;4.07;2.10;;;;;;;15.68;88.75;101033.63;4994991;28;20029;-79
2021/07/10 07:21:02;;;;;;;2.72;1.77;;;;;;;15.71;88.64;101037.81;4980019;28;20112;-80
2021/07/10 07:23:28;;;;;;;3.63;1.52;;;;;;;15.71;88.57;101030.53;4992375;28;20026;-79
2021/07/10 07:25:53;;;;;;;1.83;1.40;;;;;;;15.72;88.05;101032.22;4976691;28;20034;-79
2021/07/10 07:28:19;;;;;;;1.92;1.58;;;;;;;15.72;87.66;101017.84;4995725;28;20083;-81
2021/07/10 07:30:44;;;;;;;1.98;1.40;;;;;;;15.70;87.72;101015.31;4976824;28;20017;-79
2021/07/10 07:33:10;;;;;;;1.83;1.38;;;;;;;15.77;87.41;101024.31;4979958;28;20105;-81
2021/07/10 07:35:35;;;;;;;1.85;1.50;;;;;;;15.79;87.29;101029.50;4980390;28;20030;-80
2021/07/10 07:38:01;;;;;;;1.70;1.20;;;;;;;15.80;87.12;101033.91;4976743;28;20026;-80
2021/07/10 07:40:26;;;;;;;1.80;1.20;;;;;;;15.79;86.78;101032.22;4976948;28;20386;-81
2021/07/10 07:42:52;;;;;;;1.77;1.27;;;;;;;15.80;86.76;101031.22;4997029;28;20083;-81
2021/07/10 07:45:21;;;;;;;1.88;1.40;;;;;;;15.86;86.67;101021.41;4976694;28;20034;-80
2021/07/10 07:47:47;;;;;;;1.67;1.38;;;;;;;16.02;86.53;101026.47;4978879;28;20034;-82
2021/07/10 07:50:15;;;;;;;3.10;1.60;;;;;;;16.11;86.07;101024.38;4978177;28;20084;-82
2021/07/10 07:52:42;;;;;;;1.60;1.20;;;;;;;16.21;85.71;101028.38;4997848;28;20079;-82
2021/07/10 07:55:10;;;;;;;3.22;1.50;;;;;;;16.20;85.66;101015.03;4981852;28;20112;-82
2021/07/10 07:57:36;;;;;;;2.00;1.30;;;;;;;16.26;85.25;101035.91;4981238;28;20025;-82
2021/07/10 08:00:01;;;;;;;3.22;1.38;;;;;;;16.28;85.20;101033.81;4981596;28;20546;-82
2021/07/10 08:02:27;;;;;;;1.67;1.17;;;;;;;16.30;84.71;101034.44;4996501;28;20018;-83
2021/07/10 08:04:52;;;;;;;1.55;1.17;;;;;;;16.25;84.75;101029.63;4985657;28;20022;-81
2021/07/10 08:07:18;;;;;;;2.28;1.50;;;;;;;16.30;84.23;101041.72;4993410;28;20119;-82
2021/07/10 08:09:44;;;;;;;1.55;1.30;;;;;;;16.33;84.09;101039.47;5002953;28;20014;-82
2021/07/10 08:12:10;;;;;;;2.03;1.20;;;;;;;16.40;84.19;101042.16;4987517;28;20094;-82
2021/07/10 08:14:36;;;;;;;1.67;1.20;;;;;;;16.33;83.55;101046.78;5018815;28;20086;-82
2021/07/10 08:17:03;;;;;;;2.92;1.23;;;;;;;16.34;83.24;101049.25;4985097;28;20026;-82
2021/07/10 08:19:28;;;;;;;2.75;1.10;;;;;;;16.34;83.23;101043.00;5001001;28;20033;-81
2021/07/10 08:21:54;;;;;;;1.30;0.95;;;;;;;16.41;83.18;101054.72;4999007;28;20026;-81
2021/07/10 08:24:19;;;;;;;1.50;1.00;;;;;;;16.45;82.77;101054.06;4988105;28;20061;-81
2021/07/10 08:26:45;;;;;;;1.27;0.90;;;;;;;16.45;82.22;101056.78;4981779;28;20034;-82
2021/07/10 08:29:11;;;;;;;1.27;0.90;;;;;;;16.46;81.82;101055.75;4988124;28;20030;-81
2021/07/10 08:31:37;;;;;;;1.25;0.82;;;;;;;16.50;81.76;101042.59;5000950;28;20023;-82
2021/07/10 08:34:03;;;;;;;1.55;1.00;;;;;;;16.50;81.62;101037.16;4994490;28;20406;-77
2021/07/10 08:36:28;;;;;;;1.10;0.90;;;;;;;16.58;81.04;101036.13;4979802;28;20026;-77
2021/07/10 08:38:53;;;;;;;1.70;0.75;;;;;;;16.67;81.32;101041.16;4990693;28;20092;-76
2021/07/10 08:41:19;;;;;;;0.98;0.80;;;;;;;16.77;80.37;101038.03;4999213;28;20062;-76
2021/07/10 08:43:45;;;;;;;0.85;0.80;;;;;;;16.87;79.71;101037.59;4976667;28;20017;-77
2021/07/10 08:46:12;;;;;;;1.23;0.90;;;;;;;17.01;79.44;101041.97;4967357;28;20668;-77
2021/07/10 08:48:38;;;;;;;1.08;0.90;;;;;;;17.11;79.14;101034.22;4989513;28;20084;-77
2021/07/10 08:51:05;;;;;;;1.08;0.80;;;;;;;17.19;78.22;101029.63;4993117;28;20113;-76
2021/07/10 08:53:32;;;;;;;1.77;0.90;;;;;;;17.25;78.10;101039.63;5012395;28;20030;-77
2021/07/10 08:55:58;;;;;;;1.00;0.80;;;;;;;17.29;77.92;101030.00;4994840;28;20026;-77
2021/07/10 08:58:23;;;;;;;0.93;0.85;;;;;;;17.30;77.81;101031.66;4993141;28;20084;-76
2021/07/10 09:00:50;;;;;;;1.60;0.93;;;;;;;17.30;77.63;101023.50;4977618;28;20038;-77
2021/07/10 09:03:16;;;;;;;1.30;0.90;;;;;;;17.27;77.24;101024.78;4985904;28;20494;-77
2021/07/10 09:05:42;;;;;;;1.95;0.90;;;;;;;17.20;77.36;101026.69;5010747;28;20061;-77
2021/07/10 09:08:21;;;;;;;0.77;0.70;;;;;;;17.18;77.81;101022.53;5000790;28;20029;-77
2021/07/10 09:10:56;;;;;;;1.00;0.90;;;;;;;17.25;77.78;101023.31;4979725;28;20030;-77
2021/07/10 09:13:30;;;;;;;1.40;0.82;;;;;;;17.22;77.65;101007.44;4992933;28;20422;-77
2021/07/10 09:16:01;;;;;;;1.38;1.00;;;;;;;17.29;77.60;101013.69;4993144;28;20022;-77
2021/07/10 09:18:35;;;;;;;2.03;0.93;;;;;;;17.41;77.19;101014.72;5005760;28;20030;-77
2021/07/10 09:21:01;;;;;;;1.02;0.90;;;;;;;17.44;76.63;101013.41;4997224;28;20036;-81
2021/07/10 09:23:38;;;;;;;1.23;0.90;;;;;;;17.51;76.73;101012.34;5021216;28;20100;-79
2021/07/10 09:26:22;;;;;;;1.70;0.90;;;;;;;17.67;76.49;101004.75;5006966;28;20453;-81
2021/07/10 09:29:02;;;;;;;1.88;1.00;;;;;;;17.84;75.65;101019.56;5009999;28;20470;-80
2021/07/10 09:31:31;;;;;;;3.70;1.65;;;;;;;17.94;75.62;101022.66;5012630;28;20144;-79
2021/07/10 09:34:17;;;;;;;7.00;5.35;;;;;;;17.92;74.96;101013.03;5000685;28;20026;-80
2021/07/10 09:36:55;;;;;;;8.18;4.13;;;;;;;18.05;74.88;101017.53;5012684;28;20034;-80
2021/07/10 09:39:23;;;;;;;3.30;2.78;;;;;;;18.08;74.13;101011.69;5012529;28;20053;-80
2021/07/10 09:41:48;;;;;;;3.15;2.40;;;;;;;18.06;74.43;101013.78;5030313;28;20021;-80
2021/07/10 09:44:15;;;;;;;1.30;1.10;;;;;;;18.10;74.33;101015.88;5016072;28;20434;-79
2021/07/10 09:46:41;;;;;;;4.07;2.05;;;;;;;18.10;74.48;101015.00;4997519;28;20076;-80
2021/07/10 09:49:17;;;;;;;2.90;2.10;;;;;;;18.04;74.32;100994.13;4987253;28;20405;-80
2021/07/10 09:51:42;;;;;;;5.45;1.40;;;;;;;18.19;73.97;101024.59;5021033;28;20034;-81
2021/07/10 09:54:09;;;;;;;1.80;1.20;;;;;;;18.20;73.95;101016.19;5000908;28;20087;-81
2021/07/10 09:56:39;;;;;;;2.80;1.25;;;;;;;18.17;73.67;101022.06;4999191;28;20032;-80
2021/07/10 09:59:19;;;;;;;2.50;1.55;;;;;;;18.22;73.08;101021.41;5005097;28;20025;-80
2021/07/10 10:01:45;;;;;;;5.75;1.33;;;;;;;18.32;72.78;101019.06;4992498;28;20116;-80
2021/07/10 10:04:20;;;;;;;2.55;1.40;;;;;;;18.40;72.95;101023.41;4988057;28;20105;-80
2021/07/10 10:06:45;;;;;;;2.22;1.30;;;;;;;18.40;72.92;101020.66;5015519;28;20052;-79
2021/07/10 10:09:24;;;;;;;1.00;0.80;;;;;;;18.47;72.41;101021.47;4983490;28;20026;-80
2021/07/10 10:12:01;;;;;;;3.08;1.00;;;;;;;18.52;72.14;101016.16;4997759;28;20456;-80
2021/07/10 10:14:29;;;;;;;1.95;1.02;;;;;;;18.62;71.74;101011.03;4993566;28;20093;-80
2021/07/10 10:16:55;;;;;;;2.05;1.30;;;;;;;18.64;71.80;101011.66;4992560;28;20034;-80
2021/07/10 10:19:23;;;;;;;1.83;1.00;;;;;;;18.62;71.56;101008.31;5002063;28;20026;-80
2021/07/10 10:21:51;;;;;;;0.98;0.77;;;;;;;18.68;70.75;100995.69;5018766;28;20094;-79
2021/07/10 10:24:17;;;;;;;3.80;1.48;;;;;;;18.86;70.78;101003.94;4993440;28;20110;-80
2021/07/10 10:26:44;;;;;;;2.03;1.10;;;;;;;18.97;70.91;100996.09;5015632;28;20386;-80
2021/07/10 10:29:11;;;;;;;1.48;0.80;;;;;;;18.98;70.30;101001.31;5008778;28;20018;-80
2021/07/10 10:31:38;;;;;;;1.63;0.80;;;;;;;19.06;70.96;101002.91;4996704;28;20034;-81
2021/07/10 10:34:06;;;;;;;1.15;0.90;;;;;;;19.18;70.89;101000.25;4988222;28;20086;-80
2021/07/10 10:36:34;;;;;;;3.55;1.90;;;;;;;19.13;69.86;100995.47;4995580;28;20036;-81
2021/07/10 10:39:00;;;;;;;5.50;2.58;;;;;;;19.42;69.18;100995.78;5013022;28;20554;-80
2021/07/10 10:41:26;;;;;;;3.72;1.48;;;;;;;19.98;67.10;100984.56;4993955;28;20040;-81
2021/07/10 10:43:54;;;;;;;2.05;1.42;;;;;;;20.51;65.82;100988.34;4991883;28;20032;-81
2021/07/10 10:46:23;;;;;;;0.95;0.77;;;;;;;20.51;65.16;100995.69;4979772;28;20057;-80
2021/07/10 10:48:49;;;;;;;3.03;1.50;;;;;;;20.34;65.78;101001.03;5014451;28;20415;-81
2021/07/10 10:51:31;;;;;;;2.83;1.20;;;;;;;20.09;65.89;100993.03;5002844;28;20084;-80
2021/07/10 10:54:19;;;;;;;1.53;1.20;;;;;;;19.95;66.25;100995.09;4997233;28;20026;-81
2021/07/10 10:56:45;;;;;;;1.80;1.10;;;;;;;19.80;66.98;100987.34;5010801;28;20025;-81
2021/07/10 10:59:33;;;;;;;1.35;1.15;;;;;;;19.75;67.39;100985.31;5003817;28;20053;-80
2021/07/10 11:01:59;;;;;;;2.17;1.67;;;;;;;19.68;67.91;100981.84;4990403;28;20418;-80
2021/07/10 11:04:43;;;;;;;1.52;0.75;;;;;;;19.82;68.32;100987.09;4976974;28;20056;-81
2021/07/10 11:07:21;;;;;;;2.78;1.17;;;;;;;19.84;68.13;100994.00;5016735;28;20399;-80
2021/07/10 11:10:02;;;;;;;2.55;1.30;;;;;;;19.83;68.28;100992.34;4996709;28;20029;-79
2021/07/10 11:12:46;;;;;;;1.55;1.10;;;;;;;20.00;68.47;100973.41;4976937;28;20030;-79
2021/07/10 11:15:34;;;;;;;1.23;0.82;;;;;;;20.11;68.19;100975.34;4996443;28;20529;-80
2021/07/10 11:18:09;;;;;;;2.50;1.02;;;;;;;20.05;67.05;100967.25;4997991;28;20037;-81
2021/07/10 11:20:50;;;;;;;1.23;1.00;;;;;;;19.98;66.75;100987.28;4981192;28;20041;-81
2021/07/10 11:23:30;;;;;;;2.65;1.58;;;;;;;19.89;67.02;100985.13;4999567;28;20107;-82